createdAt,value
2022-10-20T00:01:25.142Z,7.03
2022-10-20T00:03:53.366Z,7.13
2022-10-20T00:06:31.729Z,6.32
2022-10-20T00:09:02.649Z,5.47
2022-10-20T00:11:30.382Z,5.93
2022-10-20T00:13:58.809Z,7.55
2022-10-20T00:16:27.440Z,8.02
2022-10-20T00:18:56.031Z,7.40
2022-10-20T00:21:24.973Z,5.75
2022-10-20T00:23:53.489Z,7.78
2022-10-20T00:26:23.760Z,7.32
2022-10-20T00:28:52.049Z,6.82
2022-10-20T00:31:23.241Z,7.15
2022-10-20T00:33:52.585Z,7.68
2022-10-20T00:36:24.788Z,7.63
2022-10-20T00:38:57.870Z,7.20
2022-10-20T00:41:25.183Z,8.43
2022-10-20T00:43:59.653Z,6.57
2022-10-20T00:46:42.667Z,7.18
2022-10-20T00:49:26.704Z,7.57
2022-10-20T00:51:55.914Z,7.43
2022-10-20T00:54:27.672Z,7.72
2022-10-20T00:56:59.121Z,7.93
2022-10-20T00:59:34.928Z,8.00
2022-10-20T01:02:04.070Z,10.00
2022-10-20T01:04:33.595Z,10.45
2022-10-20T01:07:02.246Z,11.18
2022-10-20T01:09:29.219Z,10.27
2022-10-20T01:12:19.602Z,9.35
2022-10-20T01:15:13.074Z,9.50
2022-10-20T01:17:53.151Z,9.85
2022-10-20T01:21:05.458Z,8.57
2022-10-20T01:23:57.342Z,9.60
2022-10-20T01:27:00.737Z,10.10
2022-10-20T01:29:38.873Z,10.52
2022-10-20T01:32:50.285Z,9.95
2022-10-20T01:35:53.065Z,10.10
2022-10-20T01:38:40.603Z,9.20
2022-10-20T01:41:38.003Z,9.40
2022-10-20T01:44:09.986Z,10.10
2022-10-20T01:46:39.498Z,12.35
2022-10-20T01:49:08.100Z,12.07
2022-10-20T01:51:34.855Z,12.00
2022-10-20T01:54:02.869Z,11.73
2022-10-20T01:56:48.774Z,11.77
2022-10-20T01:59:35.343Z,12.93
2022-10-20T02:02:30.617Z,11.13
2022-10-20T02:05:36.101Z,13.40
2022-10-20T02:08:39.526Z,14.68
2022-10-20T02:11:11.469Z,15.68
2022-10-20T02:13:50.187Z,16.05
2022-10-20T02:16:22.093Z,17.33
2022-10-20T02:18:50.558Z,18.45
2022-10-20T02:21:17.710Z,19.38
2022-10-20T02:23:50.132Z,17.67
2022-10-20T02:26:20.358Z,18.25
2022-10-20T02:28:56.317Z,21.52
2022-10-20T02:31:24.552Z,21.13
2022-10-20T02:33:52.837Z,20.90
2022-10-20T02:36:25.471Z,23.85
2022-10-20T02:38:52.168Z,21.20
2022-10-20T02:41:19.256Z,21.40
2022-10-20T02:43:53.591Z,22.38
2022-10-20T02:46:20.704Z,19.65
2022-10-20T02:48:47.881Z,19.70
2022-10-20T02:51:15.485Z,19.60
2022-10-20T02:53:42.554Z,20.60
2022-10-20T02:56:09.899Z,18.65
2022-10-20T02:58:36.748Z,18.23
2022-10-20T03:01:04.447Z,18.70
2022-10-20T03:03:32.480Z,18.75
2022-10-20T03:06:06.941Z,17.02
2022-10-20T03:08:34.093Z,17.52
2022-10-20T03:11:02.317Z,16.48
2022-10-20T03:15:58.747Z,15.48
2022-10-20T03:18:38.823Z,16.45
2022-10-20T03:21:06.275Z,14.65
2022-10-20T03:23:33.206Z,15.20
2022-10-20T03:26:05.844Z,13.30
2022-10-20T03:28:34.428Z,16.17
2022-10-20T03:31:04.157Z,13.70
2022-10-20T03:33:32.116Z,14.05
2022-10-20T03:35:59.273Z,13.98
2022-10-20T03:38:27.434Z,14.40
2022-10-20T03:40:54.895Z,12.23
2022-10-20T03:43:21.790Z,14.27
2022-10-20T03:45:49.104Z,14.07
2022-10-20T03:48:15.996Z,14.77
2022-10-20T03:50:44.221Z,14.20
2022-10-20T03:53:14.486Z,13.90
2022-10-20T03:55:42.018Z,16.38
2022-10-20T03:58:11.755Z,14.88
2022-10-20T04:00:39.064Z,13.73
2022-10-20T04:03:05.791Z,15.32
2022-10-20T04:05:34.256Z,15.35
2022-10-20T04:08:01.554Z,14.00
2022-10-20T04:10:31.238Z,14.02
2022-10-20T04:13:00.145Z,14.70
2022-10-20T04:15:28.155Z,15.07
2022-10-20T04:18:01.399Z,15.30
2022-10-20T04:20:29.110Z,16.30
2022-10-20T04:23:03.690Z,16.25
2022-10-20T04:25:32.872Z,14.95
2022-10-20T04:28:06.743Z,15.93
2022-10-20T04:30:40.486Z,15.82
2022-10-20T04:33:09.164Z,14.57
2022-10-20T04:35:36.101Z,15.75
2022-10-20T04:38:15.647Z,15.85
2022-10-20T04:40:47.821Z,17.40
2022-10-20T04:43:15.875Z,16.77
2022-10-20T04:45:44.172Z,16.73
2022-10-20T04:48:10.963Z,15.95
2022-10-20T04:50:38.080Z,16.05
2022-10-20T04:53:05.929Z,14.48
2022-10-20T04:55:37.535Z,17.73
2022-10-20T04:58:04.309Z,18.08
2022-10-20T05:00:31.773Z,17.48
2022-10-20T05:02:59.411Z,18.55
2022-10-20T05:05:26.984Z,19.98
2022-10-20T05:07:57.025Z,17.52
2022-10-20T05:10:26.831Z,17.42
2022-10-20T05:12:58.850Z,20.25
2022-10-20T05:15:27.778Z,20.00
2022-10-20T05:17:58.140Z,19.83
2022-10-20T05:20:25.266Z,18.50
2022-10-20T05:22:54.813Z,21.40
2022-10-20T05:25:37.471Z,21.75
2022-10-20T05:28:05.752Z,21.05
2022-10-20T05:30:36.680Z,19.75
2022-10-20T05:33:13.779Z,20.55
2022-10-20T05:35:47.750Z,20.50
2022-10-20T05:41:19.168Z,23.00
2022-10-20T05:44:06.069Z,21.70
2022-10-20T05:46:38.803Z,22.08
2022-10-20T05:49:17.012Z,20.35
2022-10-20T05:51:45.645Z,21.92
2022-10-20T05:54:20.134Z,22.83
2022-10-20T05:56:51.903Z,23.42
2022-10-20T05:59:21.876Z,19.33
2022-10-20T06:01:58.716Z,21.23
2022-10-20T06:07:35.106Z,21.45
2022-10-20T06:10:07.021Z,19.75
2022-10-20T06:12:40.443Z,23.08
2022-10-20T06:15:17.660Z,21.30
2022-10-20T06:17:51.142Z,23.98
2022-10-20T06:20:20.811Z,25.23
2022-10-20T06:22:50.874Z,23.27
2022-10-20T06:25:21.250Z,26.58
2022-10-20T06:28:03.206Z,31.58
2022-10-20T06:30:43.039Z,29.45
2022-10-20T06:33:15.014Z,24.50
2022-10-20T06:36:02.334Z,20.92
2022-10-20T06:41:23.808Z,19.98
2022-10-20T06:44:06.870Z,17.92
2022-10-20T06:46:37.373Z,16.80
2022-10-20T06:49:14.960Z,15.23
2022-10-20T06:51:48.765Z,15.65
2022-10-20T06:54:17.973Z,17.38
2022-10-20T06:56:54.024Z,15.90
2022-10-20T07:02:11.777Z,15.32
2022-10-20T07:04:49.147Z,14.32
2022-10-20T07:07:29.518Z,14.50
2022-10-20T07:09:57.183Z,12.75
2022-10-20T07:12:26.433Z,13.57
2022-10-20T07:15:00.859Z,13.70
2022-10-20T07:17:28.004Z,13.57
2022-10-20T07:20:04.072Z,11.10
2022-10-20T07:22:46.595Z,10.15
2022-10-20T07:25:21.018Z,10.85
2022-10-20T07:27:49.673Z,9.93
2022-10-20T07:30:19.500Z,8.88
2022-10-20T07:32:48.261Z,9.90
2022-10-20T07:38:17.643Z,8.70
2022-10-20T07:40:44.989Z,8.93
2022-10-20T07:43:16.670Z,8.87
2022-10-20T07:45:47.554Z,8.00
2022-10-20T07:48:16.162Z,9.00
2022-10-20T07:50:56.691Z,8.10
2022-10-20T07:53:30.252Z,8.67
2022-10-20T07:56:00.013Z,8.40
2022-10-20T07:58:30.914Z,9.13
2022-10-20T08:00:58.724Z,7.63
2022-10-20T08:03:26.603Z,8.63
2022-10-20T08:06:00.886Z,8.30
2022-10-20T08:08:31.421Z,8.07
2022-10-20T08:10:58.439Z,8.07
2022-10-20T08:13:29.923Z,8.03
2022-10-20T08:15:57.069Z,9.03
2022-10-20T08:18:27.588Z,7.43
2022-10-20T08:21:23.812Z,8.77
2022-10-20T08:23:54.860Z,8.77
2022-10-20T08:26:32.249Z,8.67
2022-10-20T08:29:00.636Z,8.30
2022-10-20T08:31:29.225Z,7.20
2022-10-20T08:33:59.274Z,6.83
2022-10-20T08:36:28.513Z,7.53
2022-10-20T08:39:06.231Z,6.50
2022-10-20T08:42:07.390Z,6.80
2022-10-20T08:44:31.549Z,6.13
2022-10-20T08:47:05.454Z,7.27
2022-10-20T08:49:35.811Z,6.40
2022-10-20T08:52:04.255Z,6.27
2022-10-20T08:54:36.301Z,6.57
2022-10-20T08:57:05.707Z,6.37
2022-10-20T08:59:48.031Z,9.00
2022-10-20T09:02:17.146Z,7.25
2022-10-20T09:04:53.443Z,6.38
2022-10-20T09:07:25.240Z,7.50
2022-10-20T09:09:55.335Z,6.65
2022-10-20T09:12:26.422Z,6.90
2022-10-20T09:15:01.323Z,6.53
2022-10-20T09:17:29.069Z,5.60
2022-10-20T09:19:58.424Z,6.90
2022-10-20T09:22:33.359Z,5.18
2022-10-20T09:25:03.959Z,6.93
2022-10-20T09:27:42.404Z,4.20
2022-10-20T09:30:28.475Z,5.50
2022-10-20T09:32:55.240Z,4.53
2022-10-20T09:35:47.683Z,4.97
2022-10-20T09:38:19.671Z,4.75
2022-10-20T09:40:58.581Z,4.60
2022-10-20T09:43:27.016Z,4.35
2022-10-20T09:46:05.094Z,5.00
2022-10-20T09:48:35.433Z,4.53
2022-10-20T09:51:03.439Z,4.15
2022-10-20T09:53:37.120Z,3.45
2022-10-20T09:56:05.137Z,5.30
2022-10-20T10:01:18.816Z,3.22
2022-10-20T10:03:50.206Z,4.10
2022-10-20T10:06:30.194Z,4.82
2022-10-20T10:08:59.413Z,4.63
2022-10-20T10:11:36.164Z,3.45
2022-10-20T10:14:06.257Z,3.10
2022-10-20T10:16:43.659Z,4.50
2022-10-20T10:19:21.525Z,3.10
2022-10-20T10:21:57.834Z,2.70
2022-10-20T10:24:44.462Z,3.40
2022-10-20T10:27:32.229Z,3.35
2022-10-20T10:30:31.981Z,3.28
2022-10-20T10:32:58.906Z,2.65
2022-10-20T10:35:44.380Z,3.63
2022-10-20T10:38:15.321Z,4.45
2022-10-20T10:41:22.299Z,3.83
2022-10-20T10:44:04.869Z,3.50
2022-10-20T10:53:10.262Z,3.33
2022-10-20T10:56:03.853Z,2.90
2022-10-20T10:58:38.623Z,3.38
2022-10-20T11:01:35.560Z,4.85
2022-10-20T11:04:50.370Z,2.50
2022-10-20T11:07:43.928Z,2.22
2022-10-20T11:10:28.967Z,2.15
2022-10-20T11:13:24.522Z,3.28
2022-10-20T11:16:12.983Z,3.17
2022-10-20T11:19:01.372Z,3.33
2022-10-20T11:21:55.522Z,3.40
2022-10-20T11:24:36.220Z,3.20
2022-10-20T11:27:11.278Z,2.70
2022-10-20T11:29:57.862Z,3.05
2022-10-20T11:35:55.284Z,3.15
2022-10-20T11:38:53.999Z,2.38
2022-10-20T11:41:33.928Z,2.20
2022-10-20T11:44:47.458Z,1.83
2022-10-20T11:47:24.657Z,2.35
2022-10-20T11:50:02.198Z,2.95
2022-10-20T11:53:19.856Z,2.15
2022-10-20T11:56:03.622Z,3.70
2022-10-20T11:59:13.676Z,3.15
2022-10-20T12:02:25.273Z,3.50
2022-10-20T12:05:25.730Z,3.50
2022-10-20T12:14:03.760Z,3.80
2022-10-20T12:16:54.033Z,4.60
2022-10-20T12:19:30.548Z,3.90
2022-10-20T12:22:22.651Z,4.10
2022-10-20T12:24:54.038Z,4.00
2022-10-20T12:30:30.730Z,3.92
2022-10-20T12:33:17.839Z,3.53
2022-10-20T12:35:58.327Z,3.08
2022-10-20T12:38:26.075Z,4.75
2022-10-20T12:40:58.661Z,4.05
2022-10-20T12:43:50.576Z,3.40
2022-10-20T12:46:25.928Z,4.25
2022-10-20T12:49:00.251Z,3.88
2022-10-20T12:51:37.274Z,3.55
2022-10-20T12:54:15.482Z,3.08
2022-10-20T12:56:47.996Z,5.10
2022-10-20T12:59:29.905Z,3.65
2022-10-20T13:02:09.661Z,3.58
2022-10-20T13:05:07.964Z,3.65
2022-10-20T13:07:57.162Z,3.13
2022-10-20T13:10:41.248Z,3.22
2022-10-20T13:16:23.995Z,3.85
2022-10-20T13:18:53.979Z,2.85
2022-10-20T13:21:49.345Z,4.38
2022-10-20T13:24:42.741Z,4.10
2022-10-20T13:27:16.769Z,4.78
2022-10-20T13:29:52.754Z,4.20
2022-10-20T13:32:40.149Z,5.07
2022-10-20T13:35:33.507Z,4.75
2022-10-20T13:38:25.891Z,5.13
2022-10-20T13:41:11.469Z,3.25
2022-10-20T13:43:38.266Z,4.47
2022-10-20T13:46:40.741Z,4.78
2022-10-20T13:50:06.787Z,4.10
2022-10-20T13:52:45.908Z,4.95
2022-10-20T13:55:47.894Z,3.65
2022-10-20T13:58:41.216Z,3.78
2022-10-20T14:01:19.843Z,4.30
2022-10-20T14:03:49.068Z,5.15
2022-10-20T14:06:28.664Z,4.75
2022-10-20T14:09:03.580Z,4.90
2022-10-20T14:11:32.944Z,3.75
2022-10-20T14:14:04.756Z,4.95
2022-10-20T14:16:40.498Z,4.65
2022-10-20T14:19:12.463Z,3.80
2022-10-20T14:21:50.397Z,4.10
2022-10-20T14:24:30.220Z,4.00
2022-10-20T14:27:06.720Z,3.85
2022-10-20T14:29:38.641Z,3.78
2022-10-20T14:32:10.459Z,4.90
2022-10-20T14:34:53.596Z,3.72
2022-10-20T14:37:34.820Z,4.45
2022-10-20T14:40:06.617Z,3.80
2022-10-20T14:42:39.776Z,4.10
2022-10-20T14:45:09.609Z,4.57
2022-10-20T14:47:42.647Z,4.90
2022-10-20T14:50:23.776Z,4.85
2022-10-20T14:52:54.132Z,4.18
2022-10-20T14:55:35.992Z,3.80
2022-10-20T14:58:05.618Z,4.60
2022-10-20T15:00:36.272Z,5.10
2022-10-20T15:03:07.760Z,5.20
2022-10-20T15:05:46.420Z,4.40
2022-10-20T15:08:26.395Z,5.20
2022-10-20T15:13:35.321Z,4.13
2022-10-20T15:16:04.553Z,4.60
2022-10-20T15:18:40.189Z,4.18
2022-10-20T15:21:08.521Z,5.13
2022-10-20T15:23:38.860Z,5.22
2022-10-20T15:26:16.497Z,4.10
2022-10-20T15:28:50.865Z,4.90
2022-10-20T15:31:27.646Z,5.18
2022-10-20T15:33:56.844Z,6.55
2022-10-20T15:36:39.080Z,5.72
2022-10-20T15:39:35.876Z,4.68
2022-10-20T15:42:11.342Z,4.35
2022-10-20T15:44:39.910Z,5.10
2022-10-20T15:47:08.954Z,5.00
2022-10-20T15:49:40.158Z,4.70
2022-10-20T15:52:11.194Z,5.30
2022-10-20T15:54:41.532Z,4.20
2022-10-20T15:57:08.770Z,5.15
2022-10-20T15:59:36.136Z,6.93
2022-10-20T16:02:02.844Z,5.95
2022-10-20T16:04:31.995Z,6.05
2022-10-20T16:07:02.807Z,5.60
2022-10-20T16:09:30.695Z,6.20
2022-10-20T16:11:57.641Z,5.70
2022-10-20T16:14:25.767Z,5.57
2022-10-20T16:16:52.574Z,6.22
2022-10-20T16:19:19.633Z,5.30
2022-10-20T16:21:46.898Z,5.18
2022-10-20T16:24:14.268Z,4.60
2022-10-20T16:26:42.378Z,5.75
2022-10-20T16:29:12.454Z,6.00
2022-10-20T16:31:43.140Z,6.38
2022-10-20T16:34:12.191Z,7.35
2022-10-20T16:36:39.544Z,5.78
2022-10-20T16:39:09.376Z,7.20
2022-10-20T16:41:37.544Z,6.18
2022-10-20T16:44:06.807Z,6.20
2022-10-20T16:46:35.441Z,6.63
2022-10-20T16:49:10.317Z,6.93
2022-10-20T16:51:37.347Z,6.70
2022-10-20T16:54:10.498Z,7.30
2022-10-20T16:56:40.703Z,7.22
2022-10-20T16:59:08.365Z,7.47
2022-10-20T17:01:38.473Z,8.77
2022-10-20T17:04:12.387Z,8.60
2022-10-20T17:06:42.114Z,7.43
2022-10-20T17:09:09.818Z,7.68
2022-10-20T17:11:36.999Z,7.28
2022-10-20T17:14:07.504Z,8.30
2022-10-20T17:16:43.316Z,7.38
2022-10-20T17:19:18.082Z,7.47
2022-10-20T17:21:46.268Z,7.82
2022-10-20T17:24:17.297Z,6.18
2022-10-20T17:26:44.691Z,7.63
2022-10-20T17:29:11.738Z,7.22
2022-10-20T17:31:41.022Z,6.97
2022-10-20T17:34:16.802Z,7.70
2022-10-20T17:36:47.895Z,7.55
2022-10-20T17:39:17.404Z,7.15
2022-10-20T17:41:44.777Z,6.65
2022-10-20T17:44:13.407Z,7.47
2022-10-20T17:46:46.602Z,7.82
2022-10-20T17:49:14.475Z,9.00
2022-10-20T17:51:41.738Z,8.77
2022-10-20T17:54:09.803Z,7.85
2022-10-20T17:56:40.642Z,8.63
2022-10-20T18:01:41.537Z,9.25
2022-10-20T18:04:16.825Z,8.18
2022-10-20T18:06:48.979Z,9.07
2022-10-20T18:09:19.579Z,8.75
2022-10-20T18:11:59.302Z,8.90
2022-10-20T18:14:29.742Z,9.05
2022-10-20T18:16:58.757Z,6.97
2022-10-20T18:19:29.838Z,7.10
2022-10-20T18:22:02.365Z,7.70
2022-10-20T18:24:36.650Z,7.60
2022-10-20T18:27:07.681Z,5.88
2022-10-20T18:29:38.279Z,6.57
2022-10-20T18:32:13.504Z,7.65
2022-10-20T18:34:42.785Z,6.60
2022-10-20T18:37:20.537Z,6.30
2022-10-20T18:39:55.217Z,6.85
2022-10-20T18:42:30.934Z,8.32
2022-10-20T18:53:04.960Z,8.07
2022-10-20T18:55:40.806Z,7.60
2022-10-20T18:58:15.877Z,8.40
2022-10-20T19:00:53.065Z,8.90
2022-10-20T19:03:23.503Z,8.85
2022-10-20T19:11:06.279Z,8.63
2022-10-20T19:13:40.183Z,9.25
2022-10-20T19:24:24.117Z,12.13
2022-10-20T19:27:24.945Z,10.45
2022-10-20T19:29:50.215Z,10.25
2022-10-20T19:32:17.091Z,10.85
2022-10-20T19:34:44.092Z,10.80
2022-10-20T19:37:11.408Z,10.30
2022-10-20T19:39:40.503Z,9.05
2022-10-20T19:42:08.574Z,11.35
2022-10-20T19:44:41.164Z,13.48
2022-10-20T19:47:09.641Z,11.98
2022-10-20T19:49:40.315Z,10.65
2022-10-20T19:52:09.999Z,12.35
2022-10-20T19:55:06.994Z,12.27
2022-10-20T19:57:51.088Z,13.00
2022-10-20T20:03:27.557Z,12.18
2022-10-20T20:06:07.017Z,12.50
2022-10-20T20:11:33.939Z,12.90
2022-10-20T20:16:40.920Z,11.90
2022-10-20T20:19:08.362Z,12.05
2022-10-20T20:21:35.904Z,12.02
2022-10-20T20:24:06.709Z,10.98
2022-10-20T20:26:38.604Z,14.02
2022-10-20T20:29:17.142Z,19.52
2022-10-20T20:31:44.980Z,13.00
2022-10-20T20:34:13.843Z,11.77
2022-10-20T20:36:42.515Z,12.85
2022-10-20T20:39:10.174Z,14.02
2022-10-20T20:41:47.459Z,13.43
2022-10-20T20:44:14.649Z,13.27
2022-10-20T20:46:43.426Z,13.80
2022-10-20T20:49:10.257Z,13.27
2022-10-20T20:51:37.833Z,13.20
2022-10-20T20:54:05.891Z,14.02
2022-10-20T20:56:35.283Z,13.63
2022-10-20T20:59:08.451Z,14.13
2022-10-20T21:01:37.238Z,14.00
2022-10-20T21:04:07.499Z,13.82
2022-10-20T21:07:00.238Z,12.77
2022-10-20T21:09:22.680Z,14.68
2022-10-20T21:11:51.516Z,15.05
2022-10-20T21:14:20.020Z,13.20
2022-10-20T21:16:51.589Z,12.45
2022-10-20T21:19:33.092Z,12.93
2022-10-20T21:22:06.382Z,13.40
2022-10-20T21:24:36.960Z,12.82
2022-10-20T21:27:06.904Z,12.63
2022-10-20T21:29:36.110Z,12.18
2022-10-20T21:32:03.192Z,14.70
2022-10-20T21:34:31.463Z,13.70
2022-10-20T21:37:01.012Z,13.80
2022-10-20T21:42:15.037Z,12.82
2022-10-20T21:44:43.704Z,11.85
2022-10-20T21:47:11.109Z,13.10
2022-10-20T21:49:39.075Z,12.60
2022-10-20T21:52:08.135Z,12.75
2022-10-20T21:54:36.023Z,12.88
2022-10-20T21:57:04.556Z,13.13
2022-10-20T21:59:35.369Z,12.10
2022-10-20T22:02:02.371Z,12.23
2022-10-20T22:04:31.354Z,12.57
2022-10-20T22:07:00.655Z,12.57
2022-10-20T22:09:27.869Z,14.05
2022-10-20T22:11:57.577Z,13.02
2022-10-20T22:14:25.623Z,13.00
2022-10-20T22:16:53.781Z,12.40
2022-10-20T22:19:24.615Z,12.10
2022-10-20T22:21:54.822Z,13.43
2022-10-20T22:24:34.817Z,12.30
2022-10-20T22:27:01.721Z,13.30
2022-10-20T22:29:31.760Z,12.70
2022-10-20T22:32:02.519Z,12.75
2022-10-20T22:34:31.660Z,13.70
2022-10-20T22:36:58.705Z,11.20
2022-10-20T22:39:26.211Z,12.57
2022-10-20T22:41:56.224Z,13.45
2022-10-20T22:44:26.029Z,12.93
2022-10-20T22:46:52.987Z,14.48
2022-10-20T22:49:19.905Z,13.13
2022-10-20T22:51:46.764Z,12.63
2022-10-20T22:54:13.772Z,14.15
2022-10-20T22:56:40.662Z,14.30
2022-10-20T22:59:08.515Z,13.80
2022-10-20T23:01:35.835Z,13.57
2022-10-20T23:04:02.615Z,15.32
2022-10-20T23:06:30.773Z,15.30
2022-10-20T23:08:58.378Z,14.15
2022-10-20T23:11:26.631Z,16.30
2022-10-20T23:13:53.779Z,15.02
2022-10-20T23:18:52.455Z,15.35
2022-10-20T23:21:19.369Z,15.43
2022-10-20T23:23:51.368Z,15.45
2022-10-20T23:26:19.073Z,16.73
2022-10-20T23:28:46.026Z,15.48
2022-10-20T23:31:15.009Z,16.88
2022-10-20T23:33:46.048Z,16.60
2022-10-20T23:36:15.982Z,14.93
2022-10-20T23:38:46.512Z,15.93
2022-10-20T23:41:15.758Z,16.17
2022-10-20T23:43:44.004Z,16.17
2022-10-20T23:46:13.345Z,16.23
2022-10-20T23:48:41.966Z,17.55
2022-10-20T23:51:09.460Z,17.30
2022-10-20T23:53:37.399Z,17.45
2022-10-20T23:56:08.912Z,17.83
2022-10-20T23:58:38.744Z,16.17
